createdAt,value
2022-11-12T00:02:29.842Z,9.73
2022-11-12T00:07:51.378Z,9.37
2022-11-12T00:13:15.260Z,8.47
2022-11-12T00:18:37.277Z,8.70
2022-11-12T00:23:59.239Z,8.07
2022-11-12T00:29:22.233Z,7.73
2022-11-12T00:34:44.053Z,7.90
2022-11-12T00:40:07.009Z,7.93
2022-11-12T00:45:30.418Z,6.87
2022-11-12T00:50:52.871Z,6.60
2022-11-12T00:56:14.776Z,7.20
2022-11-12T01:01:37.891Z,6.70
2022-11-12T01:06:59.604Z,7.30
2022-11-12T01:12:21.138Z,6.83
2022-11-12T01:17:44.481Z,7.73
2022-11-12T01:23:05.797Z,7.83
2022-11-12T01:28:27.567Z,7.50
2022-11-12T01:33:54.758Z,7.43
2022-11-12T01:39:16.563Z,6.73
2022-11-12T01:44:40.739Z,7.00
2022-11-12T01:50:15.272Z,6.97
2022-11-12T01:55:38.856Z,8.40
2022-11-12T02:01:02.164Z,10.53
2022-11-12T02:06:26.495Z,9.07
2022-11-12T02:11:47.770Z,8.90
2022-11-12T02:17:09.986Z,8.60
2022-11-12T02:22:32.879Z,7.20
2022-11-12T02:27:56.922Z,7.37
2022-11-12T02:33:18.760Z,9.97
2022-11-12T02:38:41.830Z,7.70
2022-11-12T02:44:03.528Z,7.20
2022-11-12T02:49:25.395Z,8.10
2022-11-12T02:54:48.437Z,8.73
2022-11-12T03:00:12.698Z,6.27
2022-11-12T03:05:35.852Z,6.83
2022-11-12T03:10:58.708Z,7.17
2022-11-12T03:16:20.399Z,8.43
2022-11-12T03:21:42.161Z,8.53
2022-11-12T03:27:05.251Z,9.80
2022-11-12T03:32:27.337Z,9.20
2022-11-12T03:37:49.659Z,11.57
2022-11-12T03:43:12.611Z,10.90
2022-11-12T03:48:34.217Z,10.17
2022-11-12T03:53:55.931Z,10.00
2022-11-12T03:59:18.956Z,10.83
2022-11-12T04:04:58.076Z,11.47
2022-11-12T04:10:19.926Z,11.37
2022-11-12T04:15:42.959Z,10.87
2022-11-12T04:21:36.898Z,10.67
2022-11-12T04:26:58.373Z,10.03
2022-11-12T04:32:21.985Z,10.53
2022-11-12T04:37:47.058Z,9.60
2022-11-12T04:43:29.309Z,9.40
2022-11-12T04:48:52.045Z,10.97
2022-11-12T04:54:13.641Z,10.33
2022-11-12T04:59:35.785Z,10.00
2022-11-12T05:04:58.600Z,9.70
2022-11-12T05:10:20.023Z,10.20
2022-11-12T05:15:41.807Z,10.23
2022-11-12T05:21:25.245Z,12.70
2022-11-12T05:26:47.085Z,11.90
2022-11-12T05:32:10.702Z,12.87
2022-11-12T05:37:33.932Z,12.73
2022-11-12T05:42:55.989Z,13.07
2022-11-12T05:48:23.961Z,12.93
2022-11-12T05:53:48.044Z,12.50
2022-11-12T05:59:12.277Z,11.30
2022-11-12T06:04:33.939Z,12.33
2022-11-12T06:09:56.985Z,12.57
2022-11-12T06:15:18.584Z,11.63
2022-11-12T06:20:41.338Z,10.87
2022-11-12T06:26:05.019Z,11.83
2022-11-12T06:31:26.468Z,10.63
2022-11-12T06:36:48.816Z,10.70
2022-11-12T06:42:12.129Z,10.10
2022-11-12T06:47:34.231Z,11.07
2022-11-12T06:53:01.292Z,10.20
2022-11-12T06:58:25.286Z,9.90
2022-11-12T07:03:48.057Z,9.53
2022-11-12T07:09:11.980Z,9.00
2022-11-12T07:14:35.081Z,9.60
2022-11-12T07:20:02.279Z,10.23
2022-11-12T07:25:25.594Z,9.17
2022-11-12T07:30:51.765Z,8.70
2022-11-12T07:36:19.714Z,8.60
2022-11-12T07:41:47.695Z,8.77
2022-11-12T07:47:15.462Z,7.87
2022-11-12T07:52:44.906Z,8.43
2022-11-12T07:58:11.726Z,8.03
2022-11-12T08:03:37.503Z,8.73
2022-11-12T08:09:05.025Z,9.30
2022-11-12T08:14:31.984Z,9.87
2022-11-12T08:19:57.934Z,9.37
2022-11-12T08:25:22.297Z,9.60
2022-11-12T08:30:46.339Z,9.67
2022-11-12T08:36:11.878Z,9.23
2022-11-12T08:41:34.764Z,9.73
2022-11-12T08:46:56.812Z,10.57
2022-11-12T08:52:21.312Z,9.70
2022-11-12T08:57:54.523Z,7.93
2022-11-12T09:03:18.033Z,8.17
2022-11-12T09:08:41.096Z,8.27
2022-11-12T09:14:03.167Z,8.40
2022-11-12T09:19:24.758Z,8.00
2022-11-12T09:24:47.782Z,7.43
2022-11-12T09:30:10.150Z,7.00
2022-11-12T09:35:31.868Z,7.77
2022-11-12T09:41:09.365Z,7.83
2022-11-12T09:46:41.080Z,6.70
2022-11-12T09:52:07.828Z,6.47
2022-11-12T09:57:31.669Z,5.30
2022-11-12T10:03:02.445Z,5.53
2022-11-12T10:08:34.312Z,5.90
2022-11-12T10:14:07.373Z,5.40
2022-11-12T10:19:44.925Z,5.03
2022-11-12T10:25:15.749Z,5.60
2022-11-12T10:30:51.061Z,5.10
2022-11-12T10:36:31.339Z,4.90
2022-11-12T10:42:04.442Z,4.27
2022-11-12T10:47:34.184Z,4.33
2022-11-12T10:52:58.806Z,4.30
2022-11-12T10:58:23.504Z,3.67
2022-11-12T11:03:53.734Z,4.10
2022-11-12T11:09:20.741Z,4.37
2022-11-12T11:14:44.714Z,4.23
2022-11-12T11:20:20.030Z,4.37
2022-11-12T11:25:44.200Z,4.97
2022-11-12T11:31:17.184Z,4.53
2022-11-12T11:36:51.513Z,4.27
2022-11-12T11:42:26.650Z,4.07
2022-11-12T11:48:01.792Z,4.03
2022-11-12T11:53:31.893Z,4.20
2022-11-12T11:59:14.523Z,4.20
2022-11-12T12:04:47.014Z,4.27
2022-11-12T12:10:34.716Z,2.97
2022-11-12T12:16:19.802Z,3.70
2022-11-12T12:21:43.122Z,3.30
2022-11-12T12:27:13.362Z,3.72
2022-11-12T12:32:40.205Z,4.03
2022-11-12T12:38:12.612Z,4.07
2022-11-12T12:43:41.632Z,4.70
2022-11-12T12:49:07.785Z,5.85
2022-11-12T12:54:58.871Z,4.40
2022-11-12T13:00:33.216Z,4.88
2022-11-12T13:06:08.272Z,5.03
2022-11-12T13:12:11.982Z,4.90
2022-11-12T13:17:53.260Z,5.57
2022-11-12T13:24:04.428Z,5.70
2022-11-12T13:29:41.824Z,5.90
2022-11-12T13:35:27.725Z,5.55
2022-11-12T13:40:54.126Z,5.15
2022-11-12T13:46:27.621Z,5.70
2022-11-12T13:51:53.248Z,6.60
2022-11-12T13:57:28.925Z,5.70
2022-11-12T14:02:54.401Z,5.47
2022-11-12T14:08:41.727Z,6.05
2022-11-12T14:14:13.427Z,5.97
2022-11-12T14:20:01.913Z,6.65
2022-11-12T14:25:26.900Z,6.60
2022-11-12T14:30:48.522Z,6.47
2022-11-12T14:36:15.604Z,7.15
2022-11-12T14:41:42.806Z,7.00
2022-11-12T14:47:05.311Z,7.50
2022-11-12T14:52:32.276Z,7.47
2022-11-12T14:57:58.867Z,8.20
2022-11-12T15:03:22.265Z,8.30
2022-11-12T15:08:44.122Z,8.48
2022-11-12T15:14:07.251Z,8.80
2022-11-12T15:19:30.476Z,8.95
2022-11-12T15:24:52.562Z,11.70
2022-11-12T15:30:23.672Z,9.60
2022-11-12T15:35:46.336Z,9.30
2022-11-12T15:41:08.141Z,8.77
2022-11-12T15:46:31.336Z,9.37
2022-11-12T15:51:54.496Z,8.50
2022-11-12T15:57:19.443Z,10.57
2022-11-12T16:02:43.441Z,8.67
2022-11-12T16:08:05.845Z,9.27
2022-11-12T16:13:30.451Z,10.47
2022-11-12T16:18:53.506Z,10.97
2022-11-12T16:24:15.245Z,9.60
2022-11-12T16:29:37.373Z,9.57
2022-11-12T16:35:01.422Z,10.87
2022-11-12T16:40:26.028Z,11.07
2022-11-12T16:45:48.002Z,11.33
2022-11-12T16:51:17.322Z,10.60
2022-11-12T16:56:39.589Z,11.30
2022-11-12T17:02:01.378Z,11.10
2022-11-12T17:07:24.373Z,11.03
2022-11-12T17:12:49.410Z,10.67
2022-11-12T17:18:10.880Z,10.40
2022-11-12T17:23:33.831Z,11.27
2022-11-12T17:29:01.102Z,11.03
2022-11-12T17:34:25.552Z,10.23
2022-11-12T17:39:49.069Z,11.80
2022-11-12T17:45:11.441Z,10.90
2022-11-12T17:50:32.859Z,11.57
2022-11-12T17:55:59.355Z,11.07
2022-11-12T18:01:24.151Z,11.03
2022-11-12T18:06:46.477Z,10.70
2022-11-12T18:12:10.882Z,10.80
2022-11-12T18:17:34.273Z,10.73
2022-11-12T18:22:55.875Z,10.37
2022-11-12T18:28:19.004Z,10.83
2022-11-12T18:33:40.969Z,10.87
2022-11-12T18:39:05.606Z,10.10
2022-11-12T18:44:28.780Z,11.03
2022-11-12T18:49:50.603Z,11.27
2022-11-12T18:55:12.580Z,12.60
2022-11-12T19:00:35.593Z,12.67
2022-11-12T19:05:59.376Z,13.50
2022-11-12T19:11:21.994Z,21.90
2022-11-12T19:16:45.133Z,19.13
2022-11-12T19:22:07.456Z,16.30
2022-11-12T19:27:29.047Z,13.90
2022-11-12T19:32:52.534Z,15.13
2022-11-12T19:38:15.337Z,12.33
2022-11-12T19:43:37.684Z,14.50
2022-11-12T19:49:01.287Z,13.40
2022-11-12T19:54:23.953Z,14.33
2022-11-12T19:59:49.629Z,13.50
2022-11-12T20:05:14.243Z,13.77
2022-11-12T20:10:38.265Z,13.43
2022-11-12T20:16:01.017Z,14.73
2022-11-12T20:21:23.917Z,13.17
2022-11-12T20:26:45.831Z,12.27
2022-11-12T20:32:07.663Z,13.07
2022-11-12T20:37:32.177Z,14.67
2022-11-12T20:42:54.265Z,15.00
2022-11-12T20:48:16.444Z,15.57
2022-11-12T20:53:42.434Z,14.20
2022-11-12T20:59:05.293Z,18.27
2022-11-12T21:04:27.555Z,17.73
2022-11-12T21:09:58.360Z,15.80
2022-11-12T21:15:27.600Z,14.20
2022-11-12T21:20:49.604Z,12.93
2022-11-12T21:26:19.856Z,15.10
2022-11-12T21:31:41.865Z,16.53
2022-11-12T21:37:04.509Z,16.27
2022-11-12T21:42:28.401Z,13.43
2022-11-12T21:47:50.403Z,12.13
2022-11-12T21:53:14.624Z,11.60
2022-11-12T21:58:41.706Z,12.60
2022-11-12T22:04:10.111Z,14.50
2022-11-12T22:09:34.906Z,13.17
2022-11-12T22:14:58.332Z,14.60
2022-11-12T22:20:20.159Z,13.13
2022-11-12T22:25:42.207Z,11.63
2022-11-12T22:31:06.520Z,11.03
2022-11-12T22:36:29.600Z,12.10
2022-11-12T22:41:51.396Z,10.77
2022-11-12T22:47:14.570Z,12.43
2022-11-12T22:52:36.732Z,12.30
2022-11-12T22:58:00.885Z,12.37
2022-11-12T23:03:24.018Z,12.73
2022-11-12T23:08:46.149Z,11.57
2022-11-12T23:14:08.091Z,11.63
2022-11-12T23:19:31.177Z,11.27
2022-11-12T23:24:52.831Z,13.23
2022-11-12T23:30:15.420Z,11.70
2022-11-12T23:35:38.522Z,10.47
2022-11-12T23:41:00.985Z,10.17
2022-11-12T23:46:23.436Z,9.13
2022-11-12T23:51:46.469Z,10.00
2022-11-12T23:57:08.325Z,9.03
